Time;durP1;ratioP1;P1;durP2;ratioP2;P2;SDS_P1;SDS_P2;PMS_P1;PMS_P2;Temp;Humidity;BMP_temperature;BMP_pressure;BME280_temperature;BME280_humidity;BME280_pressure;Samples;Min_cycle;Max_cycle;Signal;HPM_P1;HPM_P2
2023/11/07 00:01:12;;;;;;;1.00;0.60;;;;;;;;;;5059271;28;20202;-82
2023/11/07 00:03:40;;;;;;;0.95;0.75;;;;;;;;;;5046180;28;20210;-82
2023/11/07 00:06:10;;;;;;;1.92;1.00;;;;;;;;;;5044923;28;20261;-80
2023/11/07 00:08:37;;;;;;;0.70;0.70;;;;;;;;;;5046599;28;20584;-80
2023/11/07 00:11:05;;;;;;;0.93;0.80;;;;;;;;;;5057343;28;20193;-82
2023/11/07 00:13:33;;;;;;;0.80;0.80;;;;;;;;;;5045148;28;20233;-81
2023/11/07 00:16:00;;;;;;;0.75;0.63;;;;;;;;;;5059046;28;20228;-81
2023/11/07 00:18:27;;;;;;;0.70;0.70;;;;;;;;;;5059086;28;20225;-81
2023/11/07 00:20:56;;;;;;;1.02;0.80;;;;;;;;;;5044018;28;20580;-80
2023/11/07 00:23:25;;;;;;;1.17;1.08;;;;;;;;;;5057807;28;20224;-81
2023/11/07 00:25:53;;;;;;;1.15;0.93;;;;;;;;;;5047953;28;20201;-79
2023/11/07 00:28:21;;;;;;;0.70;0.70;;;;;;;;;;5056890;28;20217;-80
2023/11/07 00:30:49;;;;;;;1.23;1.13;;;;;;;;;;5060672;28;20210;-81
2023/11/07 00:33:16;;;;;;;1.33;1.23;;;;;;;;;;5058597;28;20229;-79
2023/11/07 00:35:44;;;;;;;0.80;0.80;;;;;;;;;;5051147;28;20207;-82
2023/11/07 00:38:12;;;;;;;1.10;1.00;;;;;;;;;;5058359;28;20220;-81
2023/11/07 00:40:40;;;;;;;0.90;0.90;;;;;;;;;;5052013;28;20206;-81
2023/11/07 00:43:08;;;;;;;0.80;0.80;;;;;;;;;;5059167;28;20208;-81
2023/11/07 00:45:36;;;;;;;1.10;1.00;;;;;;;;;;5057521;28;20194;-81
2023/11/07 00:48:04;;;;;;;0.88;0.88;;;;;;;;;;5058359;28;20224;-81
2023/11/07 00:50:32;;;;;;;1.13;0.90;;;;;;;;;;5051263;28;20229;-81
2023/11/07 00:52:59;;;;;;;0.70;0.63;;;;;;;;;;5050245;28;20284;-81
2023/11/07 00:55:27;;;;;;;0.60;0.60;;;;;;;;;;5046205;28;20202;-81
2023/11/07 00:57:56;;;;;;;0.70;0.70;;;;;;;;;;5058313;28;20301;-81
2023/11/07 01:00:24;;;;;;;0.85;0.80;;;;;;;;;;5067532;23;20249;-81
2023/11/07 01:02:51;;;;;;;2.58;1.17;;;;;;;;;;5065554;28;20284;-80
2023/11/07 01:05:19;;;;;;;1.20;1.10;;;;;;;;;;5056465;28;20205;-80
2023/11/07 01:07:46;;;;;;;0.80;0.80;;;;;;;;;;5059525;28;20284;-81
2023/11/07 01:10:14;;;;;;;1.42;1.20;;;;;;;;;;5063182;28;20225;-79
2023/11/07 01:12:42;;;;;;;1.40;0.90;;;;;;;;;;5058438;28;20228;-80
2023/11/07 01:15:12;;;;;;;1.35;1.25;;;;;;;;;;5064400;28;20289;-80
2023/11/07 01:17:39;;;;;;;1.15;1.05;;;;;;;;;;5058864;28;20226;-80
2023/11/07 01:20:09;;;;;;;1.05;0.82;;;;;;;;;;5064367;28;20248;-82
2023/11/07 01:22:37;;;;;;;0.80;0.80;;;;;;;;;;5053756;28;20202;-80
2023/11/07 01:25:06;;;;;;;1.60;0.70;;;;;;;;;;5064340;28;20883;-79
2023/11/07 01:27:33;;;;;;;0.52;0.52;;;;;;;;;;5064337;28;20303;-80
2023/11/07 01:30:01;;;;;;;0.90;0.90;;;;;;;;;;5063061;28;20308;-80
2023/11/07 01:32:30;;;;;;;0.60;0.60;;;;;;;;;;5064867;28;20212;-81
2023/11/07 01:34:57;;;;;;;1.23;0.93;;;;;;;;;;5063335;28;20670;-80
2023/11/07 01:37:25;;;;;;;1.50;0.80;;;;;;;;;;5063255;28;20249;-81
2023/11/07 01:39:52;;;;;;;0.90;0.90;;;;;;;;;;5064224;28;20229;-81
2023/11/07 01:42:19;;;;;;;0.63;0.60;;;;;;;;;;5059826;28;20297;-79
2023/11/07 01:44:51;;;;;;;0.77;0.77;;;;;;;;;;5060213;28;20232;-82
2023/11/07 01:47:20;;;;;;;0.70;0.70;;;;;;;;;;5062046;28;20561;-79
2023/11/07 01:49:49;;;;;;;0.50;0.50;;;;;;;;;;5063444;28;20289;-81
2023/11/07 01:52:19;;;;;;;0.70;0.70;;;;;;;;;;5063620;28;20244;-80
2023/11/07 01:54:51;;;;;;;0.60;0.60;;;;;;;;;;5064606;28;20194;-79
2023/11/07 01:57:19;;;;;;;0.60;0.60;;;;;;;;;;5064253;28;20216;-80
2023/11/07 01:59:47;;;;;;;1.23;0.70;;;;;;;;;;5058391;28;20233;-79
2023/11/07 02:02:18;;;;;;;0.85;0.80;;;;;;;;;;5064587;28;20991;-80
2023/11/07 02:04:47;;;;;;;0.70;0.70;;;;;;;;;;5064656;28;20205;-81
2023/11/07 02:07:15;;;;;;;1.55;0.95;;;;;;;;;;5062640;28;20652;-79
2023/11/07 02:09:43;;;;;;;0.80;0.80;;;;;;;;;;5064384;28;20313;-79
2023/11/07 02:12:11;;;;;;;0.80;0.80;;;;;;;;;;5062991;28;20265;-80
2023/11/07 02:14:39;;;;;;;1.58;0.70;;;;;;;;;;5064570;28;20285;-81
2023/11/07 02:17:07;;;;;;;1.02;0.80;;;;;;;;;;5058402;28;20218;-81
2023/11/07 02:19:35;;;;;;;1.05;0.95;;;;;;;;;;5042814;28;20226;-81
2023/11/07 02:22:04;;;;;;;0.93;0.80;;;;;;;;;;5061628;28;20224;-81
2023/11/07 02:24:32;;;;;;;1.55;0.80;;;;;;;;;;5063408;28;20229;-81
2023/11/07 02:27:00;;;;;;;0.93;0.90;;;;;;;;;;5058532;28;20225;-79
2023/11/07 02:29:28;;;;;;;1.33;0.90;;;;;;;;;;5064337;28;20285;-80
2023/11/07 02:31:56;;;;;;;0.82;0.82;;;;;;;;;;5063844;28;20296;-81
2023/11/07 02:34:23;;;;;;;1.95;1.27;;;;;;;;;;5063490;28;20201;-81
2023/11/07 02:36:51;;;;;;;2.30;0.80;;;;;;;;;;5064190;28;20242;-80
2023/11/07 02:39:19;;;;;;;1.05;0.93;;;;;;;;;;5064238;28;20252;-80
2023/11/07 02:41:48;;;;;;;1.05;0.90;;;;;;;;;;5064019;28;20205;-80
2023/11/07 02:44:16;;;;;;;1.45;1.00;;;;;;;;;;5064217;28;20237;-81
2023/11/07 02:46:43;;;;;;;1.25;1.20;;;;;;;;;;5064714;28;20244;-80
2023/11/07 02:49:11;;;;;;;2.08;0.73;;;;;;;;;;5063690;28;20245;-80
2023/11/07 02:51:39;;;;;;;0.80;0.80;;;;;;;;;;5063768;28;20637;-79
2023/11/07 02:54:07;;;;;;;4.38;1.00;;;;;;;;;;5064272;28;20194;-79
2023/11/07 02:56:35;;;;;;;1.00;1.00;;;;;;;;;;5065012;28;20265;-80
2023/11/07 02:59:04;;;;;;;0.82;0.80;;;;;;;;;;5062255;28;20241;-80
2023/11/07 03:01:31;;;;;;;0.80;0.80;;;;;;;;;;5064950;28;20202;-81
2023/11/07 03:03:58;;;;;;;1.02;0.90;;;;;;;;;;5064041;28;20604;-80
2023/11/07 03:06:26;;;;;;;0.50;0.50;;;;;;;;;;5063927;28;20269;-81
2023/11/07 03:08:54;;;;;;;1.30;1.05;;;;;;;;;;5064948;28;20221;-80
2023/11/07 03:11:22;;;;;;;1.08;1.00;;;;;;;;;;5061001;28;20201;-79
2023/11/07 03:13:50;;;;;;;1.15;1.10;;;;;;;;;;5063451;28;20198;-81
2023/11/07 03:16:19;;;;;;;1.58;1.00;;;;;;;;;;5061659;28;20285;-80
2023/11/07 03:18:47;;;;;;;1.10;0.98;;;;;;;;;;5063625;28;20302;-81
2023/11/07 03:21:14;;;;;;;0.80;0.80;;;;;;;;;;5062264;28;20650;-82
2023/11/07 03:23:42;;;;;;;1.23;1.17;;;;;;;;;;5056741;28;20265;-80
2023/11/07 03:26:10;;;;;;;0.70;0.70;;;;;;;;;;5055515;28;20269;-80
2023/11/07 03:28:37;;;;;;;1.15;1.00;;;;;;;;;;5063558;28;20230;-80
2023/11/07 03:31:05;;;;;;;0.73;0.73;;;;;;;;;;5060621;28;20666;-80
2023/11/07 03:33:34;;;;;;;0.85;0.85;;;;;;;;;;5064097;28;20201;-79
2023/11/07 03:36:03;;;;;;;0.85;0.80;;;;;;;;;;5062793;28;20210;-82
2023/11/07 03:38:30;;;;;;;1.45;0.85;;;;;;;;;;5061150;28;20599;-82
2023/11/07 03:40:58;;;;;;;1.13;1.00;;;;;;;;;;5063137;28;20204;-81
2023/11/07 03:43:25;;;;;;;1.30;0.80;;;;;;;;;;5062753;28;20275;-79
2023/11/07 03:45:52;;;;;;;0.55;0.55;;;;;;;;;;5057294;28;20249;-81
2023/11/07 03:48:20;;;;;;;0.70;0.70;;;;;;;;;;5062264;28;20242;-80
2023/11/07 03:50:53;;;;;;;3.30;0.73;;;;;;;;;;5063720;28;20213;-80
2023/11/07 03:53:20;;;;;;;1.05;0.93;;;;;;;;;;5066102;28;20653;-80
2023/11/07 03:55:48;;;;;;;2.45;1.00;;;;;;;;;;5066703;28;20583;-81
2023/11/07 03:58:16;;;;;;;1.85;1.00;;;;;;;;;;5065422;28;20221;-79
2023/11/07 04:00:45;;;;;;;0.70;0.70;;;;;;;;;;5066046;28;20222;-80
2023/11/07 04:03:12;;;;;;;2.75;1.17;;;;;;;;;;5065867;28;20209;-80
2023/11/07 04:05:40;;;;;;;1.77;1.15;;;;;;;;;;5065328;28;20296;-82
2023/11/07 04:08:08;;;;;;;1.38;0.98;;;;;;;;;;5062480;28;20228;-80
2023/11/07 04:10:36;;;;;;;2.25;1.48;;;;;;;;;;5064648;28;20232;-81
2023/11/07 04:13:05;;;;;;;1.10;0.80;;;;;;;;;;5065272;28;20281;-80
2023/11/07 04:15:32;;;;;;;0.88;0.80;;;;;;;;;;5065254;28;20213;-82
2023/11/07 04:18:01;;;;;;;1.48;1.08;;;;;;;;;;5065230;28;20229;-81
2023/11/07 04:20:28;;;;;;;1.08;1.00;;;;;;;;;;5063772;28;20725;-82
2023/11/07 04:22:56;;;;;;;0.98;0.95;;;;;;;;;;5064644;28;20277;-80
2023/11/07 04:25:24;;;;;;;0.85;0.85;;;;;;;;;;5064171;28;20731;-81
2023/11/07 04:27:52;;;;;;;0.70;0.70;;;;;;;;;;5064233;28;20302;-81
2023/11/07 04:30:20;;;;;;;0.80;0.80;;;;;;;;;;5060093;28;20253;-80
2023/11/07 04:32:47;;;;;;;1.00;1.00;;;;;;;;;;5064944;28;20209;-81
2023/11/07 04:35:15;;;;;;;1.08;0.90;;;;;;;;;;5064561;28;20300;-82
2023/11/07 04:37:42;;;;;;;0.85;0.85;;;;;;;;;;5062250;28;20252;-80
2023/11/07 04:40:11;;;;;;;0.98;0.98;;;;;;;;;;5034103;28;20241;-80
2023/11/07 04:42:40;;;;;;;2.10;1.27;;;;;;;;;;5034193;28;20297;-80
2023/11/07 04:45:11;;;;;;;1.23;1.13;;;;;;;;;;5034202;28;20213;-79
2023/11/07 04:47:38;;;;;;;1.90;0.90;;;;;;;;;;5034659;28;20214;-81
2023/11/07 04:50:08;;;;;;;1.30;1.02;;;;;;;;;;5057270;28;20592;-80
2023/11/07 04:52:35;;;;;;;1.42;1.00;;;;;;;;;;5065677;28;20227;-81
2023/11/07 04:55:03;;;;;;;1.10;0.93;;;;;;;;;;5065577;28;20236;-81
2023/11/07 04:57:30;;;;;;;1.00;1.00;;;;;;;;;;5064002;28;20241;-81
2023/11/07 04:59:59;;;;;;;2.00;0.85;;;;;;;;;;5064002;28;20285;-82
2023/11/07 05:02:26;;;;;;;1.17;0.95;;;;;;;;;;5063595;28;20210;-82
2023/11/07 05:04:54;;;;;;;1.35;1.25;;;;;;;;;;5063662;28;20650;-81
2023/11/07 05:07:21;;;;;;;0.77;0.77;;;;;;;;;;5059453;28;20269;-81
2023/11/07 05:09:52;;;;;;;1.10;1.00;;;;;;;;;;5063855;28;20300;-81
2023/11/07 05:12:20;;;;;;;0.82;0.82;;;;;;;;;;5064958;28;20208;-81
2023/11/07 05:14:47;;;;;;;0.95;0.93;;;;;;;;;;5064169;28;20200;-80
2023/11/07 05:17:16;;;;;;;0.90;0.88;;;;;;;;;;5064135;28;20233;-79
2023/11/07 05:19:43;;;;;;;0.80;0.80;;;;;;;;;;5056519;28;20231;-81
2023/11/07 05:22:11;;;;;;;1.00;1.00;;;;;;;;;;5063607;28;20692;-79
2023/11/07 05:24:38;;;;;;;1.20;0.90;;;;;;;;;;5064774;28;20229;-81
2023/11/07 05:27:06;;;;;;;1.15;1.00;;;;;;;;;;5063868;28;20269;-80
2023/11/07 05:29:34;;;;;;;1.55;1.35;;;;;;;;;;5063217;28;20229;-81
2023/11/07 05:32:02;;;;;;;1.10;1.00;;;;;;;;;;5064612;28;20202;-81
2023/11/07 05:34:30;;;;;;;1.27;1.15;;;;;;;;;;5063937;28;20293;-81
2023/11/07 05:36:58;;;;;;;0.90;0.90;;;;;;;;;;5064140;28;20218;-82
2023/11/07 05:39:27;;;;;;;3.05;1.58;;;;;;;;;;5062981;28;20225;-82
2023/11/07 05:41:55;;;;;;;1.02;0.93;;;;;;;;;;5052786;28;20289;-79
2023/11/07 05:44:22;;;;;;;1.00;0.95;;;;;;;;;;5064392;28;20578;-80
2023/11/07 05:46:50;;;;;;;1.05;0.98;;;;;;;;;;5063368;28;20294;-81
2023/11/07 05:49:18;;;;;;;0.95;0.95;;;;;;;;;;5062554;28;20225;-81
2023/11/07 05:51:47;;;;;;;1.15;1.08;;;;;;;;;;5062967;28;20208;-80
2023/11/07 05:54:15;;;;;;;0.93;0.90;;;;;;;;;;5064326;28;20857;-82
2023/11/07 05:56:42;;;;;;;1.08;1.00;;;;;;;;;;5064217;28;20220;-81
2023/11/07 05:59:10;;;;;;;0.68;0.68;;;;;;;;;;5061295;28;20257;-80
2023/11/07 06:01:37;;;;;;;1.65;1.00;;;;;;;;;;5052707;28;20202;-80
2023/11/07 06:04:08;;;;;;;3.33;0.90;;;;;;;;;;5057478;28;20218;-80
2023/11/07 06:06:36;;;;;;;1.10;1.00;;;;;;;;;;5060289;28;20198;-81
2023/11/07 06:09:06;;;;;;;1.50;1.40;;;;;;;;;;5057996;28;20227;-80
2023/11/07 06:11:34;;;;;;;1.15;1.08;;;;;;;;;;5061094;28;20217;-80
2023/11/07 06:14:01;;;;;;;0.80;0.80;;;;;;;;;;5062828;28;20269;-81
2023/11/07 06:16:28;;;;;;;1.10;0.95;;;;;;;;;;5060836;28;20202;-81
2023/11/07 06:18:56;;;;;;;1.20;1.10;;;;;;;;;;5056546;28;20221;-81
2023/11/07 06:21:23;;;;;;;2.42;1.85;;;;;;;;;;5062854;28;20291;-80
2023/11/07 06:23:51;;;;;;;3.20;1.90;;;;;;;;;;5062423;28;20204;-81
2023/11/07 06:26:21;;;;;;;1.30;1.20;;;;;;;;;;5061825;28;20208;-81
2023/11/07 06:28:49;;;;;;;1.05;1.00;;;;;;;;;;5062118;28;20224;-80
2023/11/07 06:31:24;;;;;;;1.52;1.33;;;;;;;;;;5062980;28;20695;-81
2023/11/07 06:33:51;;;;;;;1.80;1.42;;;;;;;;;;5061835;28;20292;-81
2023/11/07 06:36:19;;;;;;;1.55;1.40;;;;;;;;;;5061709;28;20208;-81
2023/11/07 06:38:46;;;;;;;1.35;1.13;;;;;;;;;;5061721;28;20222;-79
2023/11/07 06:41:14;;;;;;;1.33;1.23;;;;;;;;;;5062183;28;20308;-79
2023/11/07 06:43:43;;;;;;;1.35;1.15;;;;;;;;;;5051608;28;20194;-81
2023/11/07 06:46:10;;;;;;;3.42;1.13;;;;;;;;;;5062308;28;20214;-80
2023/11/07 06:48:38;;;;;;;1.23;1.23;;;;;;;;;;5057916;28;20224;-79
2023/11/07 06:51:06;;;;;;;0.90;0.90;;;;;;;;;;5062223;28;20267;-79
2023/11/07 06:53:34;;;;;;;3.92;1.40;;;;;;;;;;5058433;28;20277;-78
2023/11/07 06:56:01;;;;;;;1.13;1.10;;;;;;;;;;5059454;28;20201;-81
2023/11/07 06:58:29;;;;;;;1.30;1.20;;;;;;;;;;5061591;28;20225;-81
2023/11/07 07:00:57;;;;;;;1.85;1.23;;;;;;;;;;5064926;22;20306;-79
2023/11/07 07:03:26;;;;;;;1.10;1.00;;;;;;;;;;5046107;28;20292;-78
2023/11/07 07:05:54;;;;;;;2.17;1.33;;;;;;;;;;5053747;28;20245;-79
2023/11/07 07:08:23;;;;;;;0.98;0.98;;;;;;;;;;5059458;28;20250;-79
2023/11/07 07:10:50;;;;;;;0.75;0.75;;;;;;;;;;5060221;28;20217;-78
2023/11/07 07:13:19;;;;;;;0.93;0.93;;;;;;;;;;5059869;28;20228;-80
2023/11/07 07:15:47;;;;;;;1.83;1.73;;;;;;;;;;5052144;28;20251;-78
2023/11/07 07:18:18;;;;;;;0.98;0.98;;;;;;;;;;5059348;28;20212;-80
2023/11/07 07:20:47;;;;;;;1.00;1.00;;;;;;;;;;5055195;28;20221;-79
2023/11/07 07:23:14;;;;;;;1.20;1.10;;;;;;;;;;5057159;28;20236;-80
2023/11/07 07:25:43;;;;;;;1.05;0.98;;;;;;;;;;5043320;28;20621;-79
2023/11/07 07:28:11;;;;;;;1.65;1.00;;;;;;;;;;5053845;28;20232;-79
2023/11/07 07:30:38;;;;;;;1.63;1.50;;;;;;;;;;5059383;28;20221;-80
2023/11/07 07:33:07;;;;;;;1.60;1.50;;;;;;;;;;5050330;28;20236;-80
2023/11/07 07:35:37;;;;;;;1.30;1.20;;;;;;;;;;5054787;28;20208;-80
2023/11/07 07:38:04;;;;;;;0.90;0.90;;;;;;;;;;5055509;28;20218;-79
2023/11/07 07:40:32;;;;;;;1.35;1.10;;;;;;;;;;5054230;28;20261;-80
2023/11/07 07:43:08;;;;;;;1.40;1.30;;;;;;;;;;5063377;28;20226;-79
2023/11/07 07:45:36;;;;;;;1.08;1.08;;;;;;;;;;5060109;28;20206;-80
2023/11/07 07:48:06;;;;;;;1.17;0.93;;;;;;;;;;5051888;28;20273;-80
2023/11/07 07:50:35;;;;;;;1.55;0.90;;;;;;;;;;5060229;28;20221;-80
2023/11/07 07:53:06;;;;;;;0.82;0.73;;;;;;;;;;5057719;28;20222;-79
2023/11/07 07:55:33;;;;;;;1.55;1.05;;;;;;;;;;5063844;28;20193;-79
2023/11/07 07:58:02;;;;;;;1.92;0.93;;;;;;;;;;5057507;28;20289;-78
2023/11/07 08:00:31;;;;;;;1.45;1.35;;;;;;;;;;5057641;28;20225;-78
2023/11/07 08:03:06;;;;;;;1.75;1.17;;;;;;;;;;5059767;28;20419;-79
2023/11/07 08:05:38;;;;;;;1.45;1.15;;;;;;;;;;5057052;28;20264;-79
2023/11/07 08:08:06;;;;;;;1.85;1.00;;;;;;;;;;5062806;28;20185;-80
2023/11/07 08:10:34;;;;;;;0.70;0.70;;;;;;;;;;5062188;28;20596;-80
2023/11/07 08:13:06;;;;;;;4.53;1.20;;;;;;;;;;5062204;28;20554;-79
2023/11/07 08:15:35;;;;;;;0.88;0.88;;;;;;;;;;5062709;28;20198;-80
2023/11/07 08:18:05;;;;;;;1.38;1.35;;;;;;;;;;5062414;28;20206;-79
2023/11/07 08:20:34;;;;;;;1.38;1.10;;;;;;;;;;5060990;28;20232;-80
2023/11/07 08:23:04;;;;;;;1.20;1.10;;;;;;;;;;5062146;28;20670;-80
2023/11/07 08:25:32;;;;;;;2.20;1.30;;;;;;;;;;5059392;28;20741;-79
2023/11/07 08:28:00;;;;;;;0.55;0.55;;;;;;;;;;5053106;28;20289;-79
2023/11/07 08:30:27;;;;;;;2.03;1.20;;;;;;;;;;5053894;28;20225;-81
2023/11/07 08:32:55;;;;;;;1.88;1.10;;;;;;;;;;5050572;28;20252;-79
2023/11/07 08:35:23;;;;;;;1.98;1.00;;;;;;;;;;5059690;28;20197;-80
2023/11/07 08:37:52;;;;;;;1.48;1.38;;;;;;;;;;5051710;28;20199;-80
2023/11/07 08:40:21;;;;;;;0.88;0.85;;;;;;;;;;5055209;28;20231;-80
2023/11/07 08:42:50;;;;;;;1.95;1.25;;;;;;;;;;5053645;28;20207;-80
2023/11/07 08:45:19;;;;;;;1.50;1.40;;;;;;;;;;5051460;28;20202;-79
2023/11/07 08:47:48;;;;;;;0.80;0.80;;;;;;;;;;5061031;28;20209;-80
2023/11/07 08:50:16;;;;;;;1.10;1.00;;;;;;;;;;5061097;28;20306;-80
2023/11/07 08:52:43;;;;;;;1.35;0.70;;;;;;;;;;5050964;28;20255;-80
2023/11/07 08:55:13;;;;;;;1.23;1.08;;;;;;;;;;5055031;28;20241;-80
2023/11/07 08:57:40;;;;;;;0.80;0.80;;;;;;;;;;5058848;28;20228;-80
2023/11/07 09:00:12;;;;;;;1.40;1.30;;;;;;;;;;5061583;28;20240;-79
2023/11/07 09:02:39;;;;;;;1.33;1.00;;;;;;;;;;5057463;28;20297;-80
2023/11/07 09:05:08;;;;;;;0.80;0.80;;;;;;;;;;5050230;28;20644;-80
2023/11/07 09:07:36;;;;;;;1.02;1.02;;;;;;;;;;5049071;28;20356;-80
2023/11/07 09:10:04;;;;;;;0.98;0.98;;;;;;;;;;5060777;28;20213;-80
2023/11/07 09:12:33;;;;;;;2.35;1.48;;;;;;;;;;5050707;28;20194;-80
2023/11/07 09:15:05;;;;;;;2.65;1.38;;;;;;;;;;5057324;28;20277;-80
2023/11/07 09:17:32;;;;;;;1.58;1.48;;;;;;;;;;5051297;28;20208;-80
2023/11/07 09:20:02;;;;;;;1.70;0.90;;;;;;;;;;5059694;28;20236;-80
2023/11/07 09:22:30;;;;;;;1.10;1.10;;;;;;;;;;5060196;28;20312;-80
2023/11/07 09:24:57;;;;;;;1.25;1.15;;;;;;;;;;5055530;28;20202;-80
2023/11/07 09:27:25;;;;;;;2.10;1.30;;;;;;;;;;5058540;28;20206;-79
2023/11/07 09:29:57;;;;;;;0.98;0.90;;;;;;;;;;5049692;28;20757;-80
2023/11/07 09:32:26;;;;;;;1.48;1.10;;;;;;;;;;5048726;28;20190;-80
2023/11/07 09:34:56;;;;;;;0.90;0.90;;;;;;;;;;5054501;28;20198;-80
2023/11/07 09:37:24;;;;;;;0.80;0.80;;;;;;;;;;5046868;28;20198;-80
2023/11/07 09:39:51;;;;;;;2.90;1.70;;;;;;;;;;5060089;28;20269;-81
2023/11/07 09:42:19;;;;;;;1.30;1.20;;;;;;;;;;5050532;28;20228;-79
2023/11/07 09:44:48;;;;;;;1.33;0.90;;;;;;;;;;5055004;28;20721;-80
2023/11/07 09:47:17;;;;;;;2.85;1.42;;;;;;;;;;5059704;28;20205;-80
2023/11/07 09:49:45;;;;;;;1.40;1.10;;;;;;;;;;5058530;28;20244;-79
2023/11/07 09:52:13;;;;;;;1.00;1.00;;;;;;;;;;5056498;28;20783;-81
2023/11/07 09:54:44;;;;;;;2.05;1.00;;;;;;;;;;5046702;28;20199;-80
2023/11/07 09:57:11;;;;;;;1.05;1.00;;;;;;;;;;5051693;28;20220;-79
2023/11/07 09:59:42;;;;;;;1.30;1.20;;;;;;;;;;5049737;28;20236;-80
2023/11/07 10:02:09;;;;;;;1.20;1.10;;;;;;;;;;5050104;28;20235;-80
2023/11/07 10:04:42;;;;;;;1.00;0.90;;;;;;;;;;5057395;28;20641;-79
2023/11/07 10:07:09;;;;;;;0.80;0.80;;;;;;;;;;5052164;28;20197;-79
2023/11/07 10:09:36;;;;;;;1.25;1.15;;;;;;;;;;5046120;28;20289;-80
2023/11/07 10:12:04;;;;;;;0.90;0.90;;;;;;;;;;5048477;28;20212;-80
2023/11/07 10:14:34;;;;;;;1.00;1.00;;;;;;;;;;5047056;28;20285;-80
2023/11/07 10:17:04;;;;;;;1.00;1.00;;;;;;;;;;5046245;28;20202;-81
2023/11/07 10:19:32;;;;;;;0.90;0.90;;;;;;;;;;5053102;28;20229;-78
2023/11/07 10:22:06;;;;;;;1.58;0.82;;;;;;;;;;5050918;28;20237;-80
2023/11/07 10:24:44;;;;;;;0.80;0.80;;;;;;;;;;5045164;28;20195;-79
2023/11/07 10:27:13;;;;;;;0.60;0.60;;;;;;;;;;5054755;28;20201;-79
2023/11/07 10:29:51;;;;;;;0.70;0.70;;;;;;;;;;5053364;28;20291;-80
2023/11/07 10:32:19;;;;;;;1.02;0.93;;;;;;;;;;5046907;28;20449;-80
2023/11/07 10:35:02;;;;;;;0.68;0.68;;;;;;;;;;5053383;28;20644;-79
2023/11/07 10:37:37;;;;;;;0.70;0.70;;;;;;;;;;5055773;28;20202;-79
2023/11/07 10:40:06;;;;;;;0.85;0.85;;;;;;;;;;5051243;28;20213;-79
2023/11/07 10:42:35;;;;;;;0.80;0.80;;;;;;;;;;5048339;28;20226;-78
2023/11/07 10:45:09;;;;;;;0.80;0.80;;;;;;;;;;5058562;28;20205;-79
2023/11/07 10:47:37;;;;;;;1.80;0.82;;;;;;;;;;5048507;28;20194;-80
2023/11/07 10:50:07;;;;;;;0.70;0.70;;;;;;;;;;5056525;28;20247;-80
2023/11/07 10:52:37;;;;;;;1.10;1.00;;;;;;;;;;5053533;28;20206;-79
2023/11/07 10:55:05;;;;;;;0.68;0.68;;;;;;;;;;5043584;28;20270;-79
2023/11/07 10:57:34;;;;;;;0.75;0.75;;;;;;;;;;5049509;28;20266;-79
2023/11/07 11:00:12;;;;;;;0.50;0.50;;;;;;;;;;5054416;28;20229;-79
2023/11/07 11:02:41;;;;;;;0.80;0.80;;;;;;;;;;5058529;28;20210;-79
2023/11/07 11:05:15;;;;;;;2.45;0.80;;;;;;;;;;5053725;28;20237;-80
2023/11/07 11:07:50;;;;;;;0.70;0.70;;;;;;;;;;5046778;28;20190;-79
2023/11/07 11:10:21;;;;;;;1.13;1.02;;;;;;;;;;5053943;28;20683;-80
2023/11/07 11:12:50;;;;;;;0.80;0.80;;;;;;;;;;5054946;28;20217;-79
2023/11/07 11:15:18;;;;;;;0.90;0.70;;;;;;;;;;5058342;28;20208;-79
2023/11/07 11:17:53;;;;;;;0.70;0.70;;;;;;;;;;5050707;28;20201;-80
2023/11/07 11:20:30;;;;;;;0.80;0.70;;;;;;;;;;5058561;28;20244;-79
2023/11/07 11:23:07;;;;;;;0.55;0.55;;;;;;;;;;5054355;28;20308;-79
2023/11/07 11:25:51;;;;;;;1.38;0.60;;;;;;;;;;5052856;28;20530;-78
2023/11/07 11:28:18;;;;;;;0.57;0.40;;;;;;;;;;5058458;28;20577;-78
2023/11/07 11:30:56;;;;;;;0.70;0.70;;;;;;;;;;5043749;28;20228;-79
2023/11/07 11:33:26;;;;;;;1.52;0.80;;;;;;;;;;5058475;28;20201;-80
2023/11/07 11:35:55;;;;;;;0.80;0.65;;;;;;;;;;5057671;28;20209;-78
2023/11/07 11:38:40;;;;;;;0.70;0.70;;;;;;;;;;5053487;28;20205;-78
2023/11/07 11:41:07;;;;;;;1.33;1.25;;;;;;;;;;5056974;28;20321;-79
2023/11/07 11:43:56;;;;;;;0.50;0.50;;;;;;;;;;5053569;28;20222;-77
2023/11/07 11:46:40;;;;;;;0.50;0.50;;;;;;;;;;5056603;28;20232;-78
2023/11/07 11:49:11;;;;;;;0.43;0.43;;;;;;;;;;5057617;28;20316;-78
2023/11/07 11:51:39;;;;;;;0.50;0.50;;;;;;;;;;5057408;28;20263;-79
2023/11/07 11:54:08;;;;;;;0.88;0.88;;;;;;;;;;5053895;28;20642;-79
2023/11/07 11:56:56;;;;;;;1.08;0.85;;;;;;;;;;5048035;28;20197;-78
2023/11/07 11:59:28;;;;;;;0.88;0.68;;;;;;;;;;5052236;28;20603;-78
2023/11/07 12:01:58;;;;;;;0.88;0.88;;;;;;;;;;5053888;28;20196;-78
2023/11/07 12:04:30;;;;;;;0.68;0.68;;;;;;;;;;5043322;28;20660;-78
2023/11/07 12:07:23;;;;;;;0.50;0.50;;;;;;;;;;5049959;28;20202;-78
2023/11/07 12:09:56;;;;;;;0.60;0.60;;;;;;;;;;5052118;28;20224;-78
2023/11/07 12:12:24;;;;;;;0.60;0.60;;;;;;;;;;5048951;28;20209;-77
2023/11/07 12:14:55;;;;;;;0.50;0.50;;;;;;;;;;5044481;28;20207;-78
2023/11/07 12:17:23;;;;;;;0.30;0.30;;;;;;;;;;5052604;28;20201;-77
2023/11/07 12:20:01;;;;;;;0.45;0.45;;;;;;;;;;5055028;28;20761;-78
2023/11/07 12:22:29;;;;;;;0.47;0.47;;;;;;;;;;5052142;28;20198;-78
2023/11/07 12:25:07;;;;;;;0.40;0.40;;;;;;;;;;5053536;28;20204;-78
2023/11/07 12:27:35;;;;;;;0.50;0.50;;;;;;;;;;5056465;28;20274;-81
2023/11/07 12:30:13;;;;;;;0.38;0.38;;;;;;;;;;5059866;28;20230;-79
2023/11/07 12:32:40;;;;;;;0.43;0.43;;;;;;;;;;5061273;28;20203;-79
2023/11/07 12:35:19;;;;;;;0.40;0.40;;;;;;;;;;5059525;28;20197;-79
2023/11/07 12:37:48;;;;;;;0.50;0.50;;;;;;;;;;5061343;28;20678;-79
2023/11/07 12:40:16;;;;;;;0.47;0.47;;;;;;;;;;5052121;28;20226;-79
2023/11/07 12:42:52;;;;;;;0.70;0.50;;;;;;;;;;5060487;28;20292;-79
2023/11/07 12:45:25;;;;;;;0.75;0.75;;;;;;;;;;5052787;28;20580;-79
2023/11/07 12:47:58;;;;;;;0.50;0.50;;;;;;;;;;5060543;28;20206;-79
2023/11/07 12:50:30;;;;;;;0.50;0.50;;;;;;;;;;5053834;28;20254;-79
2023/11/07 12:52:58;;;;;;;0.50;0.50;;;;;;;;;;5056986;28;20292;-78
2023/11/07 12:55:27;;;;;;;0.60;0.60;;;;;;;;;;5056016;28;20715;-78
2023/11/07 12:57:56;;;;;;;0.70;0.70;;;;;;;;;;5053865;28;20561;-79
2023/11/07 13:00:26;;;;;;;0.50;0.50;;;;;;;;;;5059938;22;20317;-81
2023/11/07 13:02:57;;;;;;;0.50;0.50;;;;;;;;;;5055579;28;20200;-81
2023/11/07 13:05:25;;;;;;;0.57;0.57;;;;;;;;;;5042710;28;20249;-81
2023/11/07 13:07:53;;;;;;;0.40;0.40;;;;;;;;;;5054259;28;20201;-81
2023/11/07 13:10:21;;;;;;;0.75;0.75;;;;;;;;;;5044934;28;20228;-81
2023/11/07 13:12:50;;;;;;;0.50;0.50;;;;;;;;;;5047681;28;20204;-81
2023/11/07 13:15:17;;;;;;;1.08;0.68;;;;;;;;;;5044304;28;20199;-81
2023/11/07 13:17:46;;;;;;;0.68;0.68;;;;;;;;;;5043911;28;20206;-82
2023/11/07 13:20:16;;;;;;;0.98;0.63;;;;;;;;;;5044676;28;20707;-81
2023/11/07 13:22:45;;;;;;;0.70;0.70;;;;;;;;;;5053347;28;20198;-82
2023/11/07 13:25:13;;;;;;;0.40;0.40;;;;;;;;;;5046633;28;20222;-82
2023/11/07 13:27:42;;;;;;;1.20;0.65;;;;;;;;;;5053286;28;20201;-82
2023/11/07 13:30:13;;;;;;;0.52;0.50;;;;;;;;;;5045141;28;20220;-82
2023/11/07 13:32:41;;;;;;;0.63;0.63;;;;;;;;;;5040850;28;20213;-82
2023/11/07 13:35:11;;;;;;;0.47;0.47;;;;;;;;;;5055987;28;20197;-81
2023/11/07 13:37:38;;;;;;;0.30;0.30;;;;;;;;;;5045648;28;20285;-82
2023/11/07 13:40:09;;;;;;;0.60;0.60;;;;;;;;;;5043228;28;20225;-82
2023/11/07 13:42:36;;;;;;;0.30;0.30;;;;;;;;;;5049852;28;20202;-81
2023/11/07 13:45:05;;;;;;;0.45;0.45;;;;;;;;;;5045860;28;20230;-81
2023/11/07 13:47:32;;;;;;;0.30;0.30;;;;;;;;;;5052662;28;20213;-82
2023/11/07 13:50:00;;;;;;;0.32;0.20;;;;;;;;;;5052400;28;20224;-83
2023/11/07 13:52:29;;;;;;;0.28;0.28;;;;;;;;;;5043920;28;20249;-82
2023/11/07 13:54:56;;;;;;;0.30;0.30;;;;;;;;;;5047991;28;20258;-82
2023/11/07 13:57:23;;;;;;;0.38;0.38;;;;;;;;;;5036427;28;20586;-83
2023/11/07 13:59:51;;;;;;;0.50;0.50;;;;;;;;;;5036366;28;20321;-82
2023/11/07 14:02:18;;;;;;;0.40;0.40;;;;;;;;;;5044463;28;20587;-82
2023/11/07 14:04:46;;;;;;;0.20;0.20;;;;;;;;;;5046409;28;20305;-82
2023/11/07 14:07:15;;;;;;;0.47;0.47;;;;;;;;;;5048640;28;20206;-83
2023/11/07 14:09:44;;;;;;;0.25;0.25;;;;;;;;;;5050457;28;20245;-82
2023/11/07 14:12:12;;;;;;;0.20;0.20;;;;;;;;;;5047997;28;20195;-83
2023/11/07 14:14:41;;;;;;;0.70;0.55;;;;;;;;;;5044296;28;20194;-82
2023/11/07 14:17:09;;;;;;;0.40;0.40;;;;;;;;;;5050730;28;20301;-82
2023/11/07 14:19:36;;;;;;;1.63;0.50;;;;;;;;;;5045678;28;20218;-83
2023/11/07 14:22:06;;;;;;;0.60;0.50;;;;;;;;;;5041955;28;20194;-83
2023/11/07 14:24:33;;;;;;;0.22;0.22;;;;;;;;;;5054871;28;20605;-82
2023/11/07 14:27:04;;;;;;;0.32;0.32;;;;;;;;;;5050062;28;20203;-81
2023/11/07 14:29:32;;;;;;;0.45;0.45;;;;;;;;;;5046900;28;20202;-81
2023/11/07 14:31:59;;;;;;;0.40;0.40;;;;;;;;;;5050432;28;20202;-82
2023/11/07 14:34:27;;;;;;;0.40;0.40;;;;;;;;;;5043432;28;20193;-82
2023/11/07 14:36:54;;;;;;;0.40;0.40;;;;;;;;;;5050913;28;20208;-82
2023/11/07 14:39:23;;;;;;;0.55;0.55;;;;;;;;;;5055667;28;20197;-82
2023/11/07 14:41:51;;;;;;;0.70;0.70;;;;;;;;;;5038496;28;20622;-82
2023/11/07 14:44:20;;;;;;;0.80;0.80;;;;;;;;;;5051607;28;20221;-81
2023/11/07 14:46:47;;;;;;;0.52;0.52;;;;;;;;;;5051074;28;20199;-81
2023/11/07 14:49:15;;;;;;;0.47;0.47;;;;;;;;;;5047629;28;20215;-81
2023/11/07 14:51:43;;;;;;;0.40;0.30;;;;;;;;;;5049437;28;20245;-82
2023/11/07 14:54:13;;;;;;;0.40;0.40;;;;;;;;;;5055722;28;20193;-81